Time;durP1;ratioP1;P1;durP2;ratioP2;P2;SDS_P1;SDS_P2;PMS_P1;PMS_P2;Temp;Humidity;BMP_temperature;BMP_pressure;BME280_temperature;BME280_humidity;BME280_pressure;Samples;Min_cycle;Max_cycle;Signal;HPM_P1;HPM_P2
2021/07/13 00:00:01;;;;;;;10.60;9.80;;;22.50;99.90;;;;;;5031891;28;21229;-66
2021/07/13 00:02:29;;;;;;;10.90;10.10;;;22.50;99.90;;;;;;5031347;28;20622;-66
2021/07/13 00:04:59;;;;;;;10.77;9.97;;;22.50;99.90;;;;;;5028492;28;20623;-65
2021/07/13 00:07:32;;;;;;;11.60;10.70;;;22.50;99.90;;;;;;5030635;28;20739;-65
2021/07/13 00:09:58;;;;;;;11.33;10.53;;;22.40;99.90;;;;;;5015358;28;20903;-66
2021/07/13 00:12:27;;;;;;;11.73;10.73;;;22.40;99.90;;;;;;5012488;28;20576;-65
2021/07/13 00:14:57;;;;;;;11.77;10.77;;;22.40;99.90;;;;;;5022655;28;20220;-66
2021/07/13 00:17:27;;;;;;;10.90;10.10;;;22.40;99.90;;;;;;5032055;28;20631;-65
2021/07/13 00:19:55;;;;;;;11.70;10.70;;;22.40;99.90;;;;;;5046322;28;20615;-65
2021/07/13 00:22:20;;;;;;;11.13;10.33;;;22.30;99.90;;;;;;5030523;28;20626;-65
2021/07/13 00:24:48;;;;;;;11.80;10.77;;;22.30;99.90;;;;;;4993987;28;20624;-66
2021/07/13 00:27:19;;;;;;;10.60;9.90;;;22.30;99.90;;;;;;5012055;28;20603;-65
2021/07/13 00:29:47;;;;;;;10.97;10.27;;;22.20;99.90;;;;;;5012425;28;20556;-65
2021/07/13 00:32:15;;;;;;;12.57;11.50;;;22.20;99.90;;;;;;5026873;28;20683;-66
2021/07/13 00:34:40;;;;;;;10.80;10.00;;;22.20;99.90;;;;;;5021564;28;20911;-65
2021/07/13 00:37:08;;;;;;;11.30;10.53;;;22.20;99.90;;;;;;5031400;28;20643;-65
2021/07/13 00:39:36;;;;;;;11.60;10.70;;;22.20;99.90;;;;;;5029046;28;20188;-65
2021/07/13 00:42:02;;;;;;;11.80;10.90;;;22.10;99.90;;;;;;5001438;28;20698;-66
2021/07/13 00:44:30;;;;;;;10.80;10.00;;;22.10;99.90;;;;;;5031058;28;21174;-65
2021/07/13 00:47:01;;;;;;;11.70;10.90;;;22.10;99.90;;;;;;5030007;28;20735;-66
2021/07/13 00:49:28;;;;;;;11.80;10.90;;;22.10;99.90;;;;;;5028043;28;21059;-65
2021/07/13 00:51:54;;;;;;;11.40;10.60;;;22.10;99.90;;;;;;5031492;28;21009;-65
2021/07/13 00:54:35;;;;;;;11.93;11.07;;;22.10;99.90;;;;;;5031765;28;20576;-66
2021/07/13 00:57:13;;;;;;;11.27;10.47;;;22.10;99.90;;;;;;5005215;28;20323;-65
2021/07/13 00:59:41;;;;;;;12.30;11.40;;;22.10;99.90;;;;;;5015127;28;20556;-66
2021/07/13 01:02:21;;;;;;;11.90;11.00;;;22.10;99.90;;;;;;5030437;28;20740;-65
2021/07/13 01:04:58;;;;;;;12.10;11.10;;;22.00;99.90;;;;;;5031049;28;21097;-65
2021/07/13 01:07:51;;;;;;;12.67;11.67;;;22.00;99.90;;;;;;5003226;28;21079;-65
2021/07/13 01:10:26;;;;;;;11.67;10.87;;;22.00;99.90;;;;;;5011209;28;20703;-65
2021/07/13 01:13:33;;;;;;;13.00;12.00;;;22.00;99.90;;;;;;4993414;28;20690;-66
2021/07/13 01:16:08;;;;;;;11.73;10.80;;;22.00;99.90;;;;;;5018403;28;20659;-65
2021/07/13 01:18:50;;;;;;;11.97;11.07;;;22.00;99.90;;;;;;5041056;28;20746;-65
2021/07/13 01:21:21;;;;;;;12.33;11.43;;;22.00;99.90;;;;;;5040086;28;20611;-65
2021/07/13 01:23:53;;;;;;;12.83;11.83;;;22.00;99.90;;;;;;5030361;28;21150;-65
2021/07/13 01:27:00;;;;;;;12.37;11.53;;;21.90;99.90;;;;;;5025612;28;20651;-65
2021/07/13 01:29:27;;;;;;;12.30;11.30;;;21.90;99.90;;;;;;5010899;28;20572;-65
2021/07/13 01:31:55;;;;;;;12.17;11.33;;;21.90;99.90;;;;;;5007976;28;20600;-66
2021/07/13 01:34:30;;;;;;;12.60;11.40;;;21.90;99.90;;;;;;5013924;28;20625;-66
2021/07/13 01:37:00;;;;;;;12.53;11.53;;;22.00;99.90;;;;;;5030021;28;21237;-65
2021/07/13 01:39:27;;;;;;;12.47;11.40;;;22.00;99.90;;;;;;5028453;28;20588;-65
2021/07/13 01:41:57;;;;;;;13.03;11.83;;;22.00;99.90;;;;;;5029115;28;20634;-65
2021/07/13 01:44:24;;;;;;;13.80;12.80;;;22.00;99.90;;;;;;5030270;28;20587;-65
2021/07/13 01:46:53;;;;;;;13.60;12.23;;;22.00;99.90;;;;;;5026677;28;20673;-66
2021/07/13 01:49:21;;;;;;;13.00;12.00;;;22.00;99.90;;;;;;5020857;28;20939;-66
2021/07/13 01:51:55;;;;;;;12.93;12.03;;;22.00;99.90;;;;;;5012909;28;20724;-66
2021/07/13 01:54:24;;;;;;;12.83;12.00;;;22.00;99.90;;;;;;5017800;28;20587;-66
2021/07/13 01:56:55;;;;;;;12.93;11.90;;;22.00;99.90;;;;;;5029757;28;21023;-66
2021/07/13 01:59:29;;;;;;;13.37;12.20;;;22.00;99.90;;;;;;5026777;28;20627;-65
2021/07/13 02:01:59;;;;;;;12.63;11.63;;;21.90;99.90;;;;;;5030363;28;20536;-65
2021/07/13 02:04:32;;;;;;;13.60;12.50;;;21.90;99.90;;;;;;5028735;28;20710;-65
2021/07/13 02:07:08;;;;;;;12.20;11.30;;;21.90;99.90;;;;;;5008286;28;20616;-65
2021/07/13 02:09:37;;;;;;;12.63;11.53;;;21.90;99.90;;;;;;5041923;28;20618;-66
2021/07/13 02:12:20;;;;;;;12.43;11.53;;;22.00;99.90;;;;;;5050374;28;20582;-65
2021/07/13 02:14:50;;;;;;;12.40;11.40;;;21.90;99.90;;;;;;5023436;28;20609;-65
2021/07/13 02:17:18;;;;;;;13.27;11.97;;;21.90;99.90;;;;;;5021981;28;21021;-65
2021/07/13 02:19:46;;;;;;;12.43;11.53;;;21.90;99.90;;;;;;5013007;28;20564;-65
2021/07/13 02:22:14;;;;;;;13.60;12.50;;;21.90;99.90;;;;;;5013285;28;20639;-66
2021/07/13 02:24:40;;;;;;;13.20;12.20;;;21.80;99.90;;;;;;5011203;28;20603;-66
2021/07/13 02:27:34;;;;;;;12.77;11.93;;;21.80;99.90;;;;;;5010593;28;20670;-65
2021/07/13 02:30:10;;;;;;;13.27;12.17;;;21.80;99.90;;;;;;4980651;28;20209;-66
2021/07/13 02:32:51;;;;;;;12.47;11.50;;;21.70;99.90;;;;;;5022761;28;20707;-65
2021/07/13 02:35:21;;;;;;;12.47;11.57;;;21.70;99.90;;;;;;5014444;28;20698;-65
2021/07/13 02:37:51;;;;;;;12.60;11.60;;;21.70;99.90;;;;;;5031407;28;20746;-66
2021/07/13 02:40:17;;;;;;;12.67;11.67;;;21.70;99.90;;;;;;5013178;28;20936;-66
2021/07/13 02:42:47;;;;;;;12.70;11.70;;;21.70;99.90;;;;;;5019737;28;20612;-66
2021/07/13 02:45:23;;;;;;;13.40;12.40;;;21.60;99.90;;;;;;5012451;28;20589;-65
2021/07/13 02:47:53;;;;;;;12.53;11.60;;;21.60;99.90;;;;;;5020031;28;20595;-66
2021/07/13 02:50:25;;;;;;;13.87;12.87;;;21.60;99.90;;;;;;5023627;28;20613;-66
2021/07/13 02:52:56;;;;;;;13.37;12.37;;;21.60;99.90;;;;;;5014416;28;20580;-66
2021/07/13 02:55:28;;;;;;;13.10;12.00;;;21.50;99.90;;;;;;5017406;28;20631;-66
2021/07/13 02:57:58;;;;;;;13.50;12.50;;;21.50;99.90;;;;;;5015003;28;20660;-66
2021/07/13 03:00:30;;;;;;;13.37;12.30;;;21.40;99.90;;;;;;5013600;28;20897;-65
2021/07/13 03:02:56;;;;;;;14.33;13.23;;;21.40;99.90;;;;;;5012659;28;20990;-65
2021/07/13 03:05:27;;;;;;;13.20;12.20;;;21.40;99.90;;;;;;5018102;28;20698;-66
2021/07/13 03:07:53;;;;;;;13.13;12.03;;;21.40;99.90;;;;;;5014044;28;21160;-65
2021/07/13 03:10:24;;;;;;;14.43;13.33;;;21.40;99.90;;;;;;5032564;28;21142;-66
2021/07/13 03:12:54;;;;;;;14.40;13.10;;;21.40;99.90;;;;;;5017639;28;20690;-65
2021/07/13 03:15:31;;;;;;;14.10;13.00;;;21.40;99.90;;;;;;5024040;28;20612;-66
2021/07/13 03:18:06;;;;;;;13.13;12.13;;;21.40;99.90;;;;;;5028746;28;20654;-66
2021/07/13 03:20:33;;;;;;;12.97;12.07;;;21.30;99.90;;;;;;5037084;28;20583;-66
2021/07/13 03:23:07;;;;;;;13.70;12.50;;;21.30;99.90;;;;;;5036764;28;20688;-66
2021/07/13 03:25:49;;;;;;;13.27;12.27;;;21.30;99.90;;;;;;5016278;28;20675;-65
2021/07/13 03:28:19;;;;;;;13.67;12.63;;;21.30;99.90;;;;;;5016264;28;20549;-66
2021/07/13 03:30:48;;;;;;;14.03;12.93;;;21.30;99.90;;;;;;5027339;28;20587;-66
2021/07/13 03:33:17;;;;;;;14.00;12.90;;;21.30;99.90;;;;;;5035305;28;20591;-65
2021/07/13 03:35:42;;;;;;;14.17;13.00;;;21.30;99.90;;;;;;5001257;28;20635;-66
2021/07/13 03:38:08;;;;;;;15.63;14.40;;;21.30;99.90;;;;;;5035195;28;20647;-65
2021/07/13 03:40:38;;;;;;;16.30;14.93;;;21.30;99.90;;;;;;5035460;28;20185;-66
2021/07/13 03:43:11;;;;;;;17.70;16.20;;;21.30;99.90;;;;;;5034717;28;20521;-66
2021/07/13 03:45:42;;;;;;;16.97;15.57;;;21.30;99.90;;;;;;5028935;28;20699;-66
2021/07/13 03:48:14;;;;;;;18.47;16.90;;;21.30;99.90;;;;;;5019728;28;20680;-66
2021/07/13 03:50:42;;;;;;;16.17;14.77;;;21.30;99.90;;;;;;5033947;28;20611;-66
2021/07/13 03:53:08;;;;;;;18.83;17.13;;;21.30;99.90;;;;;;5035766;28;20661;-66
2021/07/13 03:55:34;;;;;;;17.70;16.30;;;21.40;99.90;;;;;;5034805;28;21328;-65
2021/07/13 03:58:04;;;;;;;17.67;16.27;;;21.30;99.90;;;;;;5059202;22;20335;-69
2021/07/13 04:00:32;;;;;;;18.40;16.80;;;21.40;99.90;;;;;;5049479;28;20770;-69
2021/07/13 04:03:05;;;;;;;17.47;15.87;;;21.40;99.90;;;;;;5049437;28;20586;-69
2021/07/13 04:05:30;;;;;;;18.93;17.07;;;21.40;99.90;;;;;;5050378;28;20939;-69
2021/07/13 04:07:56;;;;;;;20.07;18.00;;;21.40;99.90;;;;;;5011861;28;20762;-69
2021/07/13 04:10:24;;;;;;;20.03;18.23;;;21.40;99.90;;;;;;5030233;28;20181;-69
2021/07/13 04:12:54;;;;;;;18.77;17.13;;;21.40;99.90;;;;;;5023484;28;20511;-69
2021/07/13 04:15:20;;;;;;;18.57;16.87;;;21.40;99.90;;;;;;5010012;28;20628;-69
2021/07/13 04:17:56;;;;;;;19.07;17.27;;;21.40;99.90;;;;;;5029537;28;21081;-68
2021/07/13 04:20:25;;;;;;;19.20;17.50;;;21.40;99.90;;;;;;5029982;28;20550;-69
2021/07/13 04:22:53;;;;;;;19.20;17.60;;;21.40;99.90;;;;;;5026479;28;20679;-69
2021/07/13 04:25:19;;;;;;;19.10;17.53;;;21.50;99.90;;;;;;5030177;28;20580;-69
2021/07/13 04:27:47;;;;;;;18.87;17.20;;;21.50;99.90;;;;;;5029693;28;20908;-68
2021/07/13 04:30:13;;;;;;;20.00;18.20;;;21.50;99.90;;;;;;5029057;28;20208;-69
2021/07/13 04:32:38;;;;;;;20.67;18.90;;;21.50;99.90;;;;;;5031688;28;21184;-69
2021/07/13 04:35:11;;;;;;;19.73;18.03;;;21.50;99.90;;;;;;5032811;28;20596;-69
2021/07/13 04:37:36;;;;;;;20.37;18.40;;;21.50;99.90;;;;;;5015047;28;20704;-69
2021/07/13 04:40:05;;;;;;;21.03;19.23;;;21.50;99.90;;;;;;5032430;28;20594;-69
2021/07/13 04:42:35;;;;;;;19.13;17.43;;;21.50;99.90;;;;;;5029040;28;20189;-69
2021/07/13 04:45:03;;;;;;;22.27;20.17;;;21.50;99.90;;;;;;5014149;28;20621;-70
2021/07/13 04:47:36;;;;;;;19.43;17.70;;;21.50;99.90;;;;;;5020849;28;20631;-70
2021/07/13 04:50:06;;;;;;;20.80;18.90;;;21.50;99.90;;;;;;5024946;28;20647;-70
2021/07/13 04:52:32;;;;;;;19.80;18.10;;;21.60;99.90;;;;;;5030066;28;20646;-70
2021/07/13 04:55:00;;;;;;;21.23;19.43;;;21.60;99.90;;;;;;5031577;28;20656;-70
2021/07/13 04:57:29;;;;;;;20.57;18.67;;;21.70;99.90;;;;;;5030168;28;20637;-70
2021/07/13 04:59:56;;;;;;;20.90;18.97;;;21.70;99.90;;;;;;5012313;28;21008;-70
2021/07/13 05:02:22;;;;;;;19.83;18.03;;;21.70;99.90;;;;;;5031491;28;20693;-70
2021/07/13 05:04:47;;;;;;;20.60;18.73;;;21.80;99.90;;;;;;5031485;28;20591;-70
2021/07/13 05:07:19;;;;;;;20.53;18.57;;;21.80;99.90;;;;;;5030267;28;20208;-70
2021/07/13 05:09:46;;;;;;;19.97;18.27;;;21.90;99.90;;;;;;5028509;28;20629;-69
2021/07/13 05:12:12;;;;;;;18.40;16.90;;;21.90;99.90;;;;;;5011604;28;20592;-68
2021/07/13 05:14:42;;;;;;;19.90;18.10;;;21.90;99.90;;;;;;5013946;28;20588;-68
2021/07/13 05:17:10;;;;;;;20.03;18.17;;;22.00;99.90;;;;;;5028296;28;20704;-68
2021/07/13 05:19:38;;;;;;;19.90;18.30;;;22.00;99.90;;;;;;5029354;28;20683;-69
2021/07/13 05:22:06;;;;;;;19.43;17.80;;;22.00;99.90;;;;;;5021322;28;20638;-68
2021/07/13 05:24:37;;;;;;;18.97;17.47;;;22.00;99.90;;;;;;5021528;28;20616;-68
2021/07/13 05:27:05;;;;;;;20.30;18.20;;;22.10;99.90;;;;;;5027393;28;20643;-69
2021/07/13 05:29:34;;;;;;;19.77;17.97;;;22.10;99.90;;;;;;5014159;28;21230;-68
2021/07/13 05:32:00;;;;;;;20.00;18.33;;;22.10;99.90;;;;;;5030124;28;20613;-68
2021/07/13 05:34:30;;;;;;;19.80;18.10;;;22.20;99.90;;;;;;5026031;28;20862;-68
2021/07/13 05:36:58;;;;;;;19.73;18.17;;;22.20;99.90;;;;;;5020731;28;20230;-68
2021/07/13 05:39:26;;;;;;;20.03;17.90;;;22.20;99.90;;;;;;5004953;28;20652;-69
2021/07/13 05:41:54;;;;;;;19.53;18.03;;;22.20;99.90;;;;;;5026777;28;20612;-68
2021/07/13 05:44:32;;;;;;;18.80;17.30;;;22.20;99.90;;;;;;5011624;28;20639;-68
2021/07/13 05:46:58;;;;;;;19.20;17.80;;;22.30;99.90;;;;;;5009894;28;20631;-69
2021/07/13 05:49:28;;;;;;;19.37;17.73;;;22.30;99.90;;;;;;5001044;28;20958;-68
2021/07/13 05:51:56;;;;;;;20.37;18.77;;;22.30;99.90;;;;;;5019702;28;20185;-68
2021/07/13 05:54:22;;;;;;;18.50;17.03;;;22.50;99.90;;;;;;5023566;28;20658;-69
2021/07/13 05:56:54;;;;;;;18.70;17.20;;;22.40;99.90;;;;;;5028489;28;20635;-68
2021/07/13 05:59:22;;;;;;;17.10;15.70;;;22.50;99.90;;;;;;5011583;28;20189;-68
2021/07/13 06:01:47;;;;;;;17.80;16.50;;;22.60;99.90;;;;;;5010941;28;20953;-69
2021/07/13 06:04:20;;;;;;;17.97;16.33;;;22.70;99.90;;;;;;5004329;28;20738;-69
2021/07/13 06:06:46;;;;;;;18.50;17.00;;;22.70;99.90;;;;;;5006372;28;20225;-69
2021/07/13 06:09:11;;;;;;;18.63;17.17;;;22.80;99.90;;;;;;5027357;28;20686;-68
2021/07/13 06:11:37;;;;;;;19.63;18.03;;;22.80;99.90;;;;;;5014033;28;20197;-68
2021/07/13 06:14:02;;;;;;;18.00;16.60;;;22.70;99.90;;;;;;5029368;28;20267;-69
2021/07/13 06:16:28;;;;;;;19.10;17.70;;;22.80;99.90;;;;;;5029942;28;20255;-68
2021/07/13 06:18:56;;;;;;;18.93;17.33;;;22.80;99.90;;;;;;5029180;28;20208;-68
2021/07/13 06:21:21;;;;;;;18.30;16.90;;;22.90;99.90;;;;;;5016004;28;20189;-68
2021/07/13 06:23:47;;;;;;;17.77;16.43;;;23.00;99.90;;;;;;5027551;28;20595;-68
2021/07/13 06:26:12;;;;;;;18.97;17.47;;;23.00;99.90;;;;;;5029931;28;20189;-68
2021/07/13 06:28:38;;;;;;;17.37;16.00;;;23.00;99.90;;;;;;5029209;28;20189;-68
2021/07/13 06:31:03;;;;;;;18.20;16.50;;;23.00;99.90;;;;;;5025217;28;20197;-68
2021/07/13 06:33:29;;;;;;;18.00;16.63;;;23.10;99.90;;;;;;5030043;28;20216;-68
2021/07/13 06:35:54;;;;;;;17.23;15.83;;;23.10;99.90;;;;;;5022929;28;20276;-68
2021/07/13 06:38:20;;;;;;;17.33;16.03;;;23.10;99.90;;;;;;5024678;28;20220;-69
2021/07/13 06:40:45;;;;;;;17.90;16.50;;;23.20;99.90;;;;;;5018478;28;20280;-68
2021/07/13 06:43:11;;;;;;;17.63;16.30;;;23.30;99.90;;;;;;5026655;28;20189;-68
2021/07/13 06:45:40;;;;;;;16.80;15.50;;;23.30;99.90;;;;;;5025783;28;20193;-68
2021/07/13 06:48:06;;;;;;;16.67;15.47;;;23.30;99.90;;;;;;5023002;28;20550;-68
2021/07/13 06:50:32;;;;;;;15.80;14.60;;;23.30;99.90;;;;;;5011503;28;20611;-68
2021/07/13 06:52:59;;;;;;;16.20;14.90;;;23.30;99.90;;;;;;5029528;28;20606;-68
2021/07/13 06:55:25;;;;;;;17.67;16.27;;;23.40;99.90;;;;;;5025079;28;20197;-68
2021/07/13 06:57:50;;;;;;;17.57;15.97;;;23.40;99.90;;;;;;5026258;28;20682;-68
2021/07/13 07:00:16;;;;;;;16.63;15.30;;;23.60;99.90;;;;;;5029741;28;20192;-68
2021/07/13 07:02:42;;;;;;;16.77;15.57;;;23.70;99.90;;;;;;5029196;28;20211;-68
2021/07/13 07:05:09;;;;;;;16.73;15.30;;;23.80;99.90;;;;;;5028178;28;21147;-68
2021/07/13 07:07:41;;;;;;;16.50;15.33;;;23.90;99.90;;;;;;5018339;28;20200;-68
2021/07/13 07:10:07;;;;;;;16.47;15.07;;;23.90;99.90;;;;;;5010812;28;20618;-68
2021/07/13 07:12:32;;;;;;;16.63;15.43;;;23.90;99.90;;;;;;5029357;28;20714;-68
2021/07/13 07:14:58;;;;;;;17.50;16.20;;;24.00;99.90;;;;;;5023123;28;20607;-68
2021/07/13 07:17:23;;;;;;;16.73;15.53;;;24.00;99.90;;;;;;5029103;28;20657;-68
2021/07/13 07:19:49;;;;;;;16.60;15.40;;;24.00;99.90;;;;;;5011214;28;20201;-68
2021/07/13 07:22:14;;;;;;;17.13;15.73;;;24.10;99.90;;;;;;5008141;28;20195;-69
2021/07/13 07:24:40;;;;;;;16.77;15.47;;;24.20;99.90;;;;;;5026188;28;20236;-68
2021/07/13 07:27:05;;;;;;;16.17;15.07;;;24.20;99.90;;;;;;5022548;28;20201;-68
2021/07/13 07:29:31;;;;;;;15.90;14.70;;;24.20;99.90;;;;;;5028801;28;20185;-68
2021/07/13 07:31:56;;;;;;;17.07;15.77;;;24.40;99.90;;;;;;5027822;28;20257;-69
2021/07/13 07:34:22;;;;;;;17.17;15.87;;;24.40;99.90;;;;;;5027092;28;20196;-69
2021/07/13 07:36:48;;;;;;;14.93;13.83;;;24.40;99.90;;;;;;5027547;28;20205;-68
2021/07/13 07:39:13;;;;;;;15.00;13.90;;;24.50;99.90;;;;;;5022746;28;20228;-69
2021/07/13 07:41:39;;;;;;;15.53;14.23;;;24.60;99.90;;;;;;5029011;28;20208;-69
2021/07/13 07:44:04;;;;;;;15.57;14.37;;;24.60;99.90;;;;;;5029025;28;20318;-69
2021/07/13 07:46:30;;;;;;;15.00;13.83;;;24.60;99.90;;;;;;4999392;28;20296;-68
2021/07/13 07:48:56;;;;;;;15.70;14.50;;;24.80;99.90;;;;;;5002264;28;20204;-69
2021/07/13 07:51:22;;;;;;;16.20;15.03;;;24.80;99.90;;;;;;5022390;28;20601;-69
2021/07/13 07:53:47;;;;;;;16.30;15.10;;;24.90;99.90;;;;;;5028666;28;20739;-69
2021/07/13 07:56:13;;;;;;;15.33;14.23;;;24.90;99.90;;;;;;5028679;28;20185;-69
2021/07/13 07:58:38;;;;;;;14.90;13.87;;;25.10;99.90;;;;;;5028958;28;20217;-69
2021/07/13 08:01:04;;;;;;;15.17;14.17;;;25.10;99.90;;;;;;5032366;28;20181;-69
2021/07/13 08:03:30;;;;;;;16.80;15.33;;;25.20;99.90;;;;;;5030236;28;20669;-69
2021/07/13 08:05:55;;;;;;;14.97;13.87;;;25.20;99.90;;;;;;5032531;28;20181;-69
2021/07/13 08:08:22;;;;;;;16.07;14.67;;;25.20;99.90;;;;;;5030309;28;20231;-69
2021/07/13 08:10:47;;;;;;;14.40;13.30;;;25.30;99.90;;;;;;5032345;28;20291;-69
2021/07/13 08:13:13;;;;;;;15.80;14.60;;;25.40;99.90;;;;;;5032217;28;20703;-69
2021/07/13 08:15:41;;;;;;;15.43;14.43;;;25.60;99.90;;;;;;5027116;28;20652;-70
2021/07/13 08:18:06;;;;;;;15.80;14.70;;;25.70;99.90;;;;;;5026593;28;20224;-69
2021/07/13 08:20:32;;;;;;;15.40;14.20;;;25.80;99.90;;;;;;5032153;28;20602;-69
2021/07/13 08:22:58;;;;;;;14.70;13.63;;;25.80;99.90;;;;;;5031993;28;20196;-69
2021/07/13 08:25:23;;;;;;;15.20;14.00;;;25.80;99.90;;;;;;5028209;28;20181;-69
2021/07/13 08:27:49;;;;;;;14.00;13.00;;;25.90;99.90;;;;;;5030695;28;20209;-69
2021/07/13 08:30:15;;;;;;;13.57;12.67;;;25.90;99.90;;;;;;5031792;28;20203;-69
2021/07/13 08:32:41;;;;;;;14.47;13.47;;;25.90;99.90;;;;;;5026591;28;20606;-69
2021/07/13 08:35:09;;;;;;;15.03;13.83;;;26.00;99.90;;;;;;5023044;28;20665;-71
2021/07/13 08:37:35;;;;;;;13.80;12.90;;;26.00;99.90;;;;;;5008805;28;20296;-68
2021/07/13 08:40:04;;;;;;;13.53;12.53;;;26.20;99.90;;;;;;5031109;28;20631;-71
2021/07/13 08:42:36;;;;;;;13.43;12.53;;;26.20;99.90;;;;;;5030918;28;20671;-71
2021/07/13 08:45:04;;;;;;;14.63;13.53;;;26.20;99.90;;;;;;5027050;28;20642;-69
2021/07/13 08:47:30;;;;;;;13.77;12.87;;;26.30;99.90;;;;;;5021435;28;20623;-72
2021/07/13 08:49:57;;;;;;;14.33;13.33;;;26.30;99.90;;;;;;5015468;28;20944;-71
2021/07/13 08:52:23;;;;;;;14.00;13.00;;;26.40;99.90;;;;;;5027480;28;20687;-72
2021/07/13 08:54:51;;;;;;;14.00;13.00;;;26.50;99.90;;;;;;5012684;28;20603;-71
2021/07/13 08:57:16;;;;;;;13.53;12.63;;;26.70;99.90;;;;;;5030244;28;20733;-71
2021/07/13 08:59:44;;;;;;;13.53;12.60;;;26.60;99.90;;;;;;5030879;28;21071;-71
2021/07/13 09:02:12;;;;;;;13.83;12.53;;;26.70;99.90;;;;;;5012142;28;20258;-70
2021/07/13 09:04:38;;;;;;;12.40;11.60;;;26.70;99.90;;;;;;5029614;28;20598;-71
2021/07/13 09:07:07;;;;;;;12.80;11.80;;;26.80;99.90;;;;;;5028114;28;20619;-71
2021/07/13 09:09:40;;;;;;;12.73;11.83;;;26.80;99.90;;;;;;5022537;28;20559;-71
2021/07/13 09:12:32;;;;;;;12.50;11.60;;;26.80;99.90;;;;;;5029333;28;20622;-68
2021/07/13 09:15:00;;;;;;;12.37;11.37;;;26.80;99.90;;;;;;5028588;28;20978;-69
2021/07/13 09:17:32;;;;;;;12.60;11.60;;;26.70;99.90;;;;;;5030392;28;20713;-71
2021/07/13 09:20:11;;;;;;;12.40;11.60;;;26.80;99.90;;;;;;5024162;28;20615;-68
2021/07/13 09:22:39;;;;;;;11.17;10.37;;;26.80;99.90;;;;;;5030951;28;20575;-69
2021/07/13 09:25:30;;;;;;;12.50;11.67;;;26.90;99.90;;;;;;5030869;28;20657;-69
2021/07/13 09:28:09;;;;;;;11.53;10.73;;;26.90;99.90;;;;;;4990589;28;20674;-69
2021/07/13 09:30:36;;;;;;;12.00;11.20;;;26.90;99.90;;;;;;5013170;28;21196;-69
2021/07/13 09:33:25;;;;;;;11.67;10.77;;;27.00;99.90;;;;;;5027609;28;20722;-69
2021/07/13 09:36:11;;;;;;;11.80;10.90;;;27.00;99.90;;;;;;5010994;28;20623;-69
2021/07/13 09:38:41;;;;;;;11.87;11.17;;;27.10;99.90;;;;;;5022131;28;21053;-69
2021/07/13 09:41:11;;;;;;;12.13;10.90;;;27.20;99.90;;;;;;5030154;28;21161;-71
2021/07/13 09:43:43;;;;;;;11.00;10.30;;;27.30;99.90;;;;;;5025539;28;20669;-71
2021/07/13 09:46:25;;;;;;;12.83;11.83;;;27.30;99.90;;;;;;5004322;28;20605;-69
2021/07/13 09:49:09;;;;;;;11.13;10.40;;;27.30;99.90;;;;;;5030273;28;20598;-68
2021/07/13 09:51:39;;;;;;;11.40;10.50;;;27.30;99.90;;;;;;5005371;28;20639;-68
2021/07/13 09:54:27;;;;;;;10.57;9.77;;;27.40;99.90;;;;;;5027563;28;20702;-69
2021/07/13 09:56:53;;;;;;;12.33;11.33;;;27.40;99.90;;;;;;5052397;22;20685;-67
2021/07/13 09:59:19;;;;;;;11.27;10.50;;;27.50;99.90;;;;;;5061479;28;20741;-66
2021/07/13 10:01:51;;;;;;;11.13;10.43;;;27.60;99.90;;;;;;5055326;28;20679;-66
2021/07/13 10:04:17;;;;;;;11.03;10.13;;;27.70;99.90;;;;;;5071864;28;20986;-66
2021/07/13 10:06:46;;;;;;;10.43;9.73;;;27.80;99.90;;;;;;5070820;28;20740;-66
2021/07/13 10:09:12;;;;;;;10.80;10.10;;;27.90;99.90;;;;;;5071196;28;20183;-66
2021/07/13 10:11:41;;;;;;;11.77;10.87;;;27.90;99.90;;;;;;5071002;28;20640;-66
2021/07/13 10:14:10;;;;;;;10.40;9.60;;;28.10;99.90;;;;;;5066035;28;20611;-66
2021/07/13 10:16:37;;;;;;;10.80;10.10;;;28.10;99.90;;;;;;5058538;28;20643;-66
2021/07/13 10:19:05;;;;;;;11.07;10.10;;;28.10;99.90;;;;;;5071065;28;20657;-66
2021/07/13 10:21:32;;;;;;;10.73;10.13;;;28.10;99.90;;;;;;5061219;28;21163;-65
2021/07/13 10:23:58;;;;;;;10.67;9.97;;;28.10;99.90;;;;;;5067592;28;20692;-66
2021/07/13 10:26:51;;;;;;;11.27;10.50;;;28.00;99.90;;;;;;5053413;28;20693;-66
2021/07/13 10:29:36;;;;;;;11.40;10.60;;;28.00;99.90;;;;;;5071129;28;20684;-66
2021/07/13 10:32:18;;;;;;;10.50;9.90;;;28.00;99.90;;;;;;5066616;28;20602;-66
2021/07/13 10:34:51;;;;;;;11.47;10.77;;;28.00;99.90;;;;;;5052435;28;20614;-66
2021/07/13 10:37:31;;;;;;;11.00;10.30;;;28.00;99.90;;;;;;5053132;28;21084;-65
2021/07/13 10:40:00;;;;;;;10.43;9.67;;;28.00;99.90;;;;;;5063160;28;20574;-66
2021/07/13 10:42:44;;;;;;;10.87;10.07;;;28.10;99.90;;;;;;5052046;28;20614;-66
2021/07/13 10:45:29;;;;;;;10.97;10.07;;;28.10;99.90;;;;;;5064695;28;20565;-66
2021/07/13 10:48:14;;;;;;;11.00;10.30;;;28.10;99.90;;;;;;5051557;28;20642;-67
2021/07/13 10:50:46;;;;;;;11.30;10.40;;;28.20;99.90;;;;;;5068674;28;20570;-67
2021/07/13 10:53:16;;;;;;;11.00;10.17;;;28.30;99.90;;;;;;5069224;28;20586;-67
2021/07/13 10:56:01;;;;;;;10.70;9.97;;;28.40;99.90;;;;;;5068916;28;21218;-66
2021/07/13 10:58:28;;;;;;;9.97;9.33;;;28.40;99.90;;;;;;5062410;28;20665;-67
2021/07/13 11:00:54;;;;;;;9.53;8.83;;;28.40;99.90;;;;;;5068681;28;20593;-66
2021/07/13 11:03:32;;;;;;;10.03;9.33;;;28.40;99.90;;;;;;5068930;28;20617;-67
2021/07/13 11:06:05;;;;;;;9.43;8.83;;;28.40;99.90;;;;;;5061786;28;20205;-67
2021/07/13 11:08:52;;;;;;;9.20;8.47;;;28.40;99.90;;;;;;5050394;28;20679;-67
2021/07/13 11:11:26;;;;;;;10.13;9.30;;;28.50;99.90;;;;;;5056012;28;20586;-65
2021/07/13 11:14:03;;;;;;;10.77;10.07;;;28.60;99.90;;;;;;5068906;28;20682;-67
2021/07/13 11:16:31;;;;;;;8.67;8.17;;;28.70;99.90;;;;;;5046530;28;20614;-66
2021/07/13 11:18:58;;;;;;;10.10;9.40;;;28.80;99.90;;;;;;5068388;28;20645;-67
2021/07/13 11:21:28;;;;;;;10.43;9.73;;;28.80;99.90;;;;;;5050341;28;20688;-67
2021/07/13 11:24:08;;;;;;;10.30;9.60;;;28.80;99.90;;;;;;5071910;28;20593;-67
2021/07/13 11:26:39;;;;;;;9.30;8.67;;;28.90;99.90;;;;;;5060847;28;20637;-67
2021/07/13 11:29:22;;;;;;;9.77;9.17;;;28.90;99.90;;;;;;5064103;28;20693;-67
2021/07/13 11:31:52;;;;;;;10.33;9.63;;;29.00;99.90;;;;;;5060449;28;20603;-66
2021/07/13 11:34:25;;;;;;;9.80;9.20;;;29.10;99.90;;;;;;5063721;28;20705;-67
2021/07/13 11:36:52;;;;;;;9.73;8.93;;;29.30;99.90;;;;;;5070351;28;21024;-66
2021/07/13 11:39:32;;;;;;;9.33;8.83;;;29.30;99.90;;;;;;5056706;28;20646;-67
2021/07/13 11:42:06;;;;;;;10.13;9.37;;;29.30;99.90;;;;;;5069400;28;20590;-67
2021/07/13 11:44:32;;;;;;;9.37;8.77;;;29.20;99.90;;;;;;5053815;28;20598;-67
2021/07/13 11:46:57;;;;;;;9.67;9.07;;;29.20;99.90;;;;;;5075522;28;20704;-66
2021/07/13 11:49:25;;;;;;;9.50;8.90;;;29.30;99.90;;;;;;5072223;28;20642;-66
2021/07/13 11:51:57;;;;;;;10.13;9.50;;;29.30;99.90;;;;;;5065099;28;20245;-66
2021/07/13 11:54:30;;;;;;;10.27;9.67;;;29.30;99.90;;;;;;5060409;28;21097;-65
2021/07/13 11:56:58;;;;;;;9.70;9.00;;;29.20;99.90;;;;;;5069383;28;21164;-66
2021/07/13 11:59:27;;;;;;;10.30;9.60;;;29.20;99.90;;;;;;5053536;28;21238;-66
2021/07/13 12:01:57;;;;;;;9.90;9.30;;;29.10;99.90;;;;;;5071867;28;20876;-66
2021/07/13 12:04:25;;;;;;;8.97;8.37;;;29.10;99.90;;;;;;5072376;28;21137;-66
2021/07/13 12:07:01;;;;;;;8.57;7.97;;;29.10;99.90;;;;;;5069640;28;21030;-66
2021/07/13 12:09:32;;;;;;;9.10;8.50;;;29.10;99.90;;;;;;5052996;28;20677;-66
2021/07/13 12:12:10;;;;;;;8.10;7.60;;;29.00;99.90;;;;;;5071607;28;20678;-66
2021/07/13 12:14:38;;;;;;;8.77;8.23;;;29.00;99.90;;;;;;5071957;28;20569;-66
2021/07/13 12:17:04;;;;;;;8.43;7.83;;;29.00;99.90;;;;;;5065877;28;20783;-65
2021/07/13 12:19:31;;;;;;;7.90;7.40;;;29.00;99.90;;;;;;5071630;28;20669;-67
2021/07/13 12:22:10;;;;;;;7.73;7.10;;;28.90;99.90;;;;;;5071338;28;20604;-66
2021/07/13 12:24:47;;;;;;;7.90;7.40;;;28.90;99.90;;;;;;5071783;28;20562;-66
2021/07/13 12:27:18;;;;;;;7.67;6.97;;;29.00;99.90;;;;;;5055673;28;20644;-66
2021/07/13 12:29:45;;;;;;;8.17;7.67;;;28.90;99.90;;;;;;5068410;28;20739;-66
2021/07/13 12:32:18;;;;;;;8.00;7.50;;;28.80;99.90;;;;;;5067154;28;20605;-67
2021/07/13 12:34:45;;;;;;;7.00;6.50;;;28.70;99.90;;;;;;5053045;28;20614;-66
2021/07/13 12:37:22;;;;;;;8.07;7.57;;;28.70;99.90;;;;;;5047198;28;20690;-66
2021/07/13 12:40:00;;;;;;;7.70;7.07;;;28.80;99.90;;;;;;5063443;28;20701;-67
2021/07/13 12:42:32;;;;;;;7.53;6.93;;;28.80;99.90;;;;;;5066702;28;20605;-65
2021/07/13 12:44:58;;;;;;;7.33;6.83;;;28.80;99.90;;;;;;5054521;28;20614;-65